This is the latest recevied weather packets stored in our database for station/object JA6YCL-13. If no packets are shown the sender has not sent any weather packets the latest 10 day(s).
| Time | Temp. | Humidity | Pressure | Rain* | Wind** | Luminosity | Snow |
|---|---|---|---|---|---|---|---|
| 1788589990 | 25.56° C | 83% | 1007.7 hPa | 0 mm | - | - | - |
| 1788589178 | 25° C | 84% | 1007.7 hPa | 0 mm | - | - | - |
| 1788588321 | 25.56° C | 84% | 1007.9 hPa | 0 mm | - | - | - |
| 1788587572 | 25° C | 85% | 1008 hPa | 0 mm | - | - | - |
| 1788586852 | 25° C | 85% | 1008.1 hPa | 0 mm | - | - | - |
| 1788586049 | 25° C | 85% | 1008.1 hPa | 0 mm | - | - | - |
| 1788585249 | 25° C | 86% | 1008.2 hPa | 0 mm | - | - | - |
| 1788584424 | 25° C | 84% | 1008.4 hPa | 0 mm | - | - | - |
| 1788583708 | 24.44° C | 87% | 1008.5 hPa | 0 mm | - | - | - |
| 1788582928 | 23.89° C | 89% | 1008.9 hPa | 0 mm | - | - | - |
| 1788582178 | 23.89° C | 90% | 1009 hPa | 0 mm | - | - | - |
| 1788581369 | 23.89° C | 90% | 1009.1 hPa | 0 mm | - | - | - |
| 1788580539 | 23.89° C | 92% | 1009.2 hPa | 0 mm | - | - | - |
| 1788579654 | 23.33° C | 94% | 1009.5 hPa | 0 mm | - | - | - |
| 1788578829 | 22.78° C | 95% | 1009.7 hPa | 1.02 mm | - | - | - |
| 1788578014 | 22.78° C | 95% | 1010 hPa | 2.54 mm | - | - | - |
| 1788577096 | 22.78° C | 96% | 1010.1 hPa | 2.03 mm | - | - | - |
| 1788576378 | 22.78° C | 96% | 1010.1 hPa | 2.54 mm | - | - | - |
| 1788575559 | 22.22° C | 96% | 1010.3 hPa | 8.89 mm | - | - | - |
| 1788574798 | 23.33° C | 93% | 1010.1 hPa | 3.05 mm | - | - | - |
| 1788573940 | 23.33° C | 92% | 1010.1 hPa | 0.25 mm | - | - | - |
| 1788573159 | 23.33° C | 90% | 1010.2 hPa | 0 mm | - | - | - |
| 1788572339 | 23.33° C | 89% | 1010.3 hPa | 0 mm | - | - | - |
| 1788571494 | 23.33° C | 89% | 1010.3 hPa | 0 mm | - | - | - |
| 1788570722 | 23.33° C | 89% | 1010.4 hPa | 0 mm | - | - | - |
* Rain latest hour (hover to see other rain measurements)
** Current wind speed in m/s (hover to see current wind gust speed)